createdAt,value
2022-07-30T00:00:26.133Z,29.5
2022-07-30T00:02:41.145Z,29.6
2022-07-30T00:04:56.012Z,29.6
2022-07-30T00:07:10.812Z,29.8
2022-07-30T00:09:25.666Z,29.8
2022-07-30T00:11:40.520Z,29.7
2022-07-30T00:13:55.412Z,29.6
2022-07-30T00:16:10.474Z,29.5
2022-07-30T00:18:10.129Z,30.1
2022-07-30T00:18:25.075Z,29.6
2022-07-30T00:20:39.899Z,29.8
2022-07-30T00:22:54.707Z,29.3
2022-07-30T00:25:19.011Z,29.6
2022-07-30T00:27:33.759Z,29.6
2022-07-30T00:29:48.621Z,29.6
2022-07-30T00:32:03.410Z,29.6
2022-07-30T00:34:18.258Z,29.8
2022-07-30T00:36:33.199Z,29.6
2022-07-30T00:38:47.989Z,29.8
2022-07-30T00:41:02.922Z,29.6
2022-07-30T00:43:17.672Z,29.8
2022-07-30T00:45:32.546Z,29.8
2022-07-30T00:47:47.664Z,29.3
2022-07-30T00:50:02.275Z,29.7
2022-07-30T00:52:17.152Z,29.8
2022-07-30T03:44:20.296Z,26.5
2022-07-30T03:46:35.544Z,29.5
2022-07-30T03:48:50.423Z,29.4
2022-07-30T03:51:05.270Z,29.4
2022-07-30T03:53:20.266Z,29.5
2022-07-30T03:55:34.903Z,29.5
2022-07-30T03:57:50.181Z,29.6
2022-07-30T04:00:04.696Z,29.6
2022-07-30T04:02:19.588Z,29.6
2022-07-30T04:04:34.447Z,29.5
2022-07-30T04:06:49.170Z,29.7
2022-07-30T04:09:04.087Z,29.6
2022-07-30T04:11:18.939Z,29.6
2022-07-30T04:13:42.723Z,29.5
2022-07-30T04:17:11.743Z,29.8
2022-07-30T04:19:26.444Z,29.6
2022-07-30T04:21:41.340Z,29.4
2022-07-30T04:24:06.731Z,29.4
2022-07-30T04:26:22.015Z,29.6
2022-07-30T04:28:45.694Z,29.4
2022-07-30T04:31:00.640Z,29.6
2022-07-30T04:33:15.586Z,29.4
2022-07-30T04:35:52.621Z,29.5
2022-07-30T04:38:07.922Z,29.6
2022-07-30T04:40:22.865Z,29.6
2022-07-30T04:42:37.646Z,29.4
2022-07-30T04:44:52.541Z,29.6
2022-07-30T04:47:07.402Z,29.6
2022-07-30T04:49:22.391Z,29.6
2022-07-30T04:51:37.051Z,29.5
2022-07-30T04:53:51.856Z,29.4
2022-07-30T04:56:06.631Z,29.4
2022-07-30T04:58:21.477Z,29.4
2022-07-30T05:00:40.906Z,29.5
2022-07-30T05:02:51.235Z,29.4
2022-07-30T05:05:06.275Z,29.4
2022-07-30T05:07:22.249Z,29.4
2022-07-30T05:09:36.116Z,29.5
2022-07-30T05:11:50.966Z,29.6
2022-07-30T05:14:06.107Z,29.6
2022-07-30T05:16:20.971Z,29.5
2022-07-30T05:18:36.114Z,29.6
2022-07-30T05:20:50.936Z,29.5
2022-07-30T05:23:06.025Z,29.6
2022-07-30T05:25:20.895Z,29.5
2022-07-30T05:27:53.230Z,29.6
2022-07-30T05:30:08.074Z,29.7
2022-07-30T05:32:22.747Z,29.6
2022-07-30T05:34:48.916Z,29.5
2022-07-30T07:00:59.024Z,29.4
2022-07-30T07:03:13.739Z,29.6
2022-07-30T07:05:28.683Z,29.6
2022-07-30T07:07:52.394Z,29.5
2022-07-30T07:09:58.690Z,29.6
2022-07-30T07:12:13.703Z,29.6
2022-07-30T07:14:28.356Z,29.6
2022-07-30T07:16:43.335Z,29.5
2022-07-30T07:18:58.163Z,29.4
2022-07-30T07:21:46.950Z,29.4
2022-07-30T07:24:01.865Z,29.8
2022-07-30T07:26:16.660Z,29.6
2022-07-30T07:28:44.103Z,29.6
2022-07-30T07:31:08.833Z,29.6
2022-07-30T07:33:55.166Z,29.5
2022-07-30T07:36:10.208Z,29.4
2022-07-30T07:38:24.947Z,29.5
2022-07-30T07:40:39.723Z,29.6
2022-07-30T07:42:54.645Z,29.5
2022-07-30T07:45:09.468Z,29.7
2022-07-30T07:47:24.260Z,29.6
2022-07-30T07:49:39.209Z,29.6
2022-07-30T07:52:05.596Z,29.4
2022-07-30T07:54:37.434Z,29.5
2022-07-30T07:56:52.824Z,29.6
2022-07-30T07:59:07.017Z,29.6
2022-07-30T08:01:22.193Z,29.6
2022-07-30T08:03:36.970Z,29.6
2022-07-30T08:06:09.810Z,29.5
2022-07-30T08:08:23.004Z,29.5
2022-07-30T08:10:37.754Z,29.8
2022-07-30T08:12:52.626Z,29.6
2022-07-30T08:15:36.351Z,29.7
2022-07-30T08:17:51.162Z,29.6
2022-07-30T08:20:06.179Z,29.8
2022-07-30T08:22:21.114Z,29.8
2022-07-30T08:24:35.725Z,29.7
2022-07-30T08:26:50.502Z,29.8
2022-07-30T08:29:07.715Z,29.6
2022-07-30T08:31:22.583Z,30
2022-07-30T08:33:37.442Z,29.8
2022-07-30T08:35:52.846Z,29.6
2022-07-30T08:38:07.390Z,29.9
2022-07-30T08:40:22.447Z,29.8
2022-07-30T08:42:37.293Z,29.6
2022-07-30T08:44:52.481Z,29.8
2022-07-30T08:47:07.204Z,29.6
2022-07-30T08:49:22.224Z,29.8
2022-07-30T08:51:37.175Z,29.6
2022-07-30T08:53:51.924Z,29.8
2022-07-30T08:56:07.083Z,29.7
2022-07-30T08:58:21.961Z,29.6
2022-07-30T09:00:50.126Z,29.8
2022-07-30T09:03:05.068Z,29.6
2022-07-30T09:05:19.874Z,29.7
2022-07-30T09:07:34.607Z,29.6
2022-07-30T09:09:49.632Z,29.7
2022-07-30T09:12:04.470Z,29.8
2022-07-30T09:14:19.236Z,29.7
2022-07-30T09:16:34.140Z,29.7
2022-07-30T09:18:49.190Z,29.6
2022-07-30T09:21:03.816Z,29.9
2022-07-30T09:23:18.734Z,29.8
2022-07-30T09:25:33.530Z,29.8
2022-07-30T09:27:48.215Z,29.7
2022-07-30T09:30:03.106Z,29.6
2022-07-30T09:32:18.169Z,29.7
2022-07-30T09:34:33.263Z,29.8
2022-07-30T09:36:47.835Z,29.8
2022-07-30T09:39:02.779Z,29.9
2022-07-30T09:41:37.498Z,29.6
2022-07-30T09:43:39.971Z,29.8
2022-07-30T09:45:58.795Z,29.8
2022-07-30T09:48:13.390Z,29.8
2022-07-30T09:50:29.717Z,29.7
2022-07-30T09:52:58.675Z,29.8
2022-07-30T09:55:13.545Z,29.8
2022-07-30T09:57:28.727Z,29.9
2022-07-30T10:02:01.242Z,29.6
2022-07-30T10:04:29.988Z,29.9
2022-07-30T10:06:44.915Z,29.8
2022-07-30T10:08:59.747Z,30
2022-07-30T10:11:14.847Z,29.9
2022-07-30T10:13:31.667Z,29.8
2022-07-30T10:15:44.319Z,30
2022-07-30T10:17:59.222Z,29.9
2022-07-30T10:20:27.215Z,29.9
2022-07-30T10:22:41.912Z,29.8
2022-07-30T10:24:56.828Z,30.1
2022-07-30T10:27:12.137Z,30.1
2022-07-30T10:29:33.522Z,29.9
2022-07-30T10:32:07.378Z,29.9
2022-07-30T10:34:28.447Z,29.9
2022-07-30T10:36:52.019Z,29.9
2022-07-30T10:39:06.842Z,29.9
2022-07-30T10:41:22.162Z,30
2022-07-30T10:43:44.923Z,29.9
2022-07-30T10:46:00.512Z,29.9
2022-07-30T10:48:15.053Z,29.9
2022-07-30T10:50:29.991Z,29.9
2022-07-30T10:52:52.032Z,30.1
2022-07-30T10:55:06.941Z,29.9
2022-07-30T10:57:31.982Z,30
2022-07-30T10:59:42.413Z,29.9
2022-07-30T11:01:57.329Z,30.1
2022-07-30T11:04:12.913Z,30.1
2022-07-30T11:06:34.082Z,29.9
2022-07-30T11:08:48.874Z,30.1
2022-07-30T11:11:16.404Z,30.1
2022-07-30T11:14:03.539Z,30
2022-07-30T11:16:20.223Z,30
2022-07-30T11:18:35.065Z,30.1
2022-07-30T11:21:15.094Z,30.1
2022-07-30T11:23:29.856Z,29.8
2022-07-30T11:25:54.827Z,29.9
2022-07-30T11:28:07.914Z,30.5
2022-07-30T11:30:37.618Z,30
2022-07-30T11:33:01.376Z,30.1
2022-07-30T11:35:16.312Z,30
2022-07-30T11:37:35.195Z,29.9
2022-07-30T11:39:49.493Z,30
2022-07-30T11:42:04.975Z,30.1
2022-07-30T11:44:23.994Z,30.1
2022-07-30T11:46:38.789Z,30.1
2022-07-30T11:48:53.703Z,29.9
2022-07-30T11:51:08.361Z,29.9
2022-07-30T11:53:23.169Z,30
2022-07-30T11:55:38.125Z,30.2
2022-07-30T11:57:52.851Z,30.1
2022-07-30T12:00:07.839Z,30.1
2022-07-30T12:02:22.669Z,30
2022-07-30T12:04:37.653Z,30.1
2022-07-30T12:06:52.463Z,30.2
2022-07-30T12:09:20.040Z,30
2022-07-30T12:11:34.547Z,29.8
2022-07-30T12:13:49.385Z,30.1
2022-07-30T12:16:04.147Z,29.9
2022-07-30T12:18:27.505Z,30.1
2022-07-30T12:20:42.901Z,30.1
2022-07-30T12:22:57.613Z,30.3
2022-07-30T12:25:13.008Z,30.1
2022-07-30T12:27:27.311Z,30.1
2022-07-30T12:29:42.498Z,30.1
2022-07-30T12:31:57.014Z,30.1
2022-07-30T12:34:11.921Z,30.1
2022-07-30T12:36:26.930Z,30.1
2022-07-30T12:38:41.709Z,30.2
2022-07-30T12:40:56.559Z,30
2022-07-30T12:43:13.677Z,30.1
2022-07-30T12:45:26.178Z,30.1
2022-07-30T12:47:41.050Z,30
2022-07-30T12:49:55.951Z,30.1
2022-07-30T12:52:13.461Z,30.1
2022-07-30T12:54:25.577Z,30.1
2022-07-30T12:56:40.400Z,30.1
2022-07-30T12:58:55.224Z,30.2
2022-07-30T13:01:10.427Z,30.1
2022-07-30T13:03:24.981Z,30.1
2022-07-30T13:05:58.161Z,30.1
2022-07-30T13:08:13.826Z,30
2022-07-30T13:10:30.992Z,30.1
2022-07-30T13:12:42.616Z,29.9
2022-07-30T13:14:57.448Z,30.1
2022-07-30T13:17:12.332Z,30.1
2022-07-30T13:19:27.253Z,30.1
2022-07-30T13:21:42.943Z,30.1
2022-07-30T13:23:56.895Z,30
2022-07-30T13:26:11.924Z,30.1
2022-07-30T13:28:26.510Z,30.1
2022-07-30T13:30:41.476Z,30.1
2022-07-30T13:32:56.397Z,30.1
2022-07-30T13:35:10.580Z,30.1
2022-07-30T13:37:37.985Z,30.1
2022-07-30T13:39:40.920Z,30.1
2022-07-30T13:41:55.864Z,30.2
2022-07-30T13:44:10.579Z,30.1
2022-07-30T13:46:25.526Z,30.1
2022-07-30T13:48:40.227Z,30
2022-07-30T13:50:55.139Z,30.1
2022-07-30T13:53:09.329Z,30.1
2022-07-30T13:55:24.752Z,30.1
2022-07-30T13:57:39.558Z,30.1
2022-07-30T13:59:54.427Z,30
2022-07-30T14:02:09.286Z,30
2022-07-30T14:04:24.210Z,30
2022-07-30T14:06:38.994Z,30.1
2022-07-30T14:08:53.854Z,30.2
2022-07-30T14:11:08.734Z,30
2022-07-30T14:13:24.101Z,30.2
2022-07-30T14:15:39.009Z,30.2
2022-07-30T14:18:08.384Z,30.1
2022-07-30T14:20:24.578Z,30.2
2022-07-30T14:22:39.443Z,30.1
2022-07-30T14:24:54.296Z,29.9
2022-07-30T14:27:09.017Z,30.4
2022-07-30T14:29:23.881Z,30.1
2022-07-30T14:31:39.337Z,30.4
2022-07-30T14:33:53.684Z,30.3
2022-07-30T14:36:08.469Z,29.9
2022-07-30T14:38:25.469Z,30
2022-07-30T14:40:38.146Z,30.1
2022-07-30T14:42:53.022Z,30.3
2022-07-30T14:45:08.009Z,30.3
2022-07-30T14:47:23.751Z,30.1
2022-07-30T14:49:38.806Z,30.2
2022-07-30T14:52:14.480Z,30.2
2022-07-30T14:54:28.704Z,30.1
2022-07-30T14:56:43.549Z,30.2
2022-07-30T14:58:58.329Z,30.1
2022-07-30T15:01:15.585Z,30.3
2022-07-30T15:03:28.168Z,30.2
2022-07-30T15:05:42.858Z,30.1
2022-07-30T15:07:57.753Z,30.3
2022-07-30T15:10:12.196Z,30.3
2022-07-30T15:13:09.888Z,30.2
2022-07-30T15:15:24.787Z,30.3
2022-07-30T15:17:39.523Z,30.1
2022-07-30T15:19:54.762Z,30.1
2022-07-30T15:22:09.343Z,30.2
2022-07-30T15:24:25.284Z,30.3
2022-07-30T15:26:39.522Z,30.3
2022-07-30T15:28:53.776Z,30
2022-07-30T15:31:08.687Z,30.1
2022-07-30T15:33:23.525Z,30.1
2022-07-30T15:35:38.393Z,30.2
2022-07-30T15:37:53.282Z,30.1
2022-07-30T15:40:08.127Z,30.3
2022-07-30T15:42:23.010Z,30.2
2022-07-30T15:44:42.258Z,30.1
2022-07-30T15:47:13.181Z,30.1
2022-07-30T15:49:28.620Z,30.1
2022-07-30T15:51:43.602Z,30.2
2022-07-30T15:54:06.435Z,30.1
2022-07-30T15:56:21.207Z,30.1
2022-07-30T15:58:39.256Z,30.1
2022-07-30T16:00:55.977Z,30.2
2022-07-30T16:03:30.644Z,30.1
2022-07-30T16:05:54.963Z,29.9
2022-07-30T16:08:10.236Z,30.3
2022-07-30T16:10:34.365Z,30.6
2022-07-30T16:12:45.794Z,30.1
2022-07-30T16:15:00.171Z,30.1
2022-07-30T16:17:15.470Z,30.3
2022-07-30T16:19:30.401Z,30.2
2022-07-30T16:21:45.256Z,30.6
2022-07-30T16:24:00.318Z,30.4
2022-07-30T16:26:14.405Z,30.1
2022-07-30T16:28:29.771Z,29.9
2022-07-30T16:30:51.162Z,30.2
2022-07-30T16:32:59.477Z,30.1
2022-07-30T16:35:14.347Z,30.1
2022-07-30T16:37:28.957Z,29.8
2022-07-30T16:39:44.209Z,30.1
2022-07-30T16:41:59.852Z,30
2022-07-30T16:44:14.126Z,30.1
2022-07-30T16:46:29.342Z,30.4
2022-07-30T16:48:44.768Z,30.4
2022-07-30T16:50:58.450Z,30.3
2022-07-30T16:53:14.725Z,29.9
2022-07-30T16:55:28.866Z,30.1
2022-07-30T16:57:43.988Z,30.3
2022-07-30T16:59:58.824Z,30.2
2022-07-30T17:02:14.178Z,30.3
2022-07-30T17:04:28.826Z,30.2
2022-07-30T17:06:43.850Z,30.3
2022-07-30T17:08:58.784Z,30.1
2022-07-30T17:11:18.360Z,30.3
2022-07-30T17:13:50.477Z,30.1
2022-07-30T17:16:05.289Z,30.3
2022-07-30T17:18:20.144Z,30.3
2022-07-30T17:20:34.899Z,30.1
2022-07-30T17:22:49.742Z,30.1
2022-07-30T17:25:04.550Z,30.2
2022-07-30T17:27:19.403Z,30.1
2022-07-30T17:29:34.452Z,30.3
2022-07-30T17:31:52.037Z,30.2
2022-07-30T17:34:06.972Z,30.1
2022-07-30T17:36:21.823Z,30.4
2022-07-30T17:38:36.751Z,30.2
2022-07-30T17:41:55.389Z,30.1
2022-07-30T17:44:08.663Z,30.3
2022-07-30T17:46:23.534Z,30.2
2022-07-30T17:48:38.378Z,30.1
2022-07-30T17:50:53.231Z,30.3
2022-07-30T17:53:08.008Z,30
2022-07-30T17:55:22.911Z,30.3
2022-07-30T17:57:44.007Z,30.3
2022-07-30T17:59:58.851Z,30.5
2022-07-30T18:02:13.775Z,30.2
2022-07-30T18:04:28.704Z,30
2022-07-30T18:06:43.927Z,30.1
2022-07-30T18:08:58.678Z,30.3
2022-07-30T18:11:13.963Z,30.2
2022-07-30T18:13:43.371Z,30.3
2022-07-30T18:15:58.317Z,30.1
2022-07-30T18:18:13.132Z,30
2022-07-30T18:20:29.261Z,30.3
2022-07-30T18:22:43.991Z,30.4
2022-07-30T18:24:58.707Z,30.4
2022-07-30T18:27:24.079Z,30.5
2022-07-30T18:29:38.840Z,30.6
2022-07-30T18:31:53.633Z,30.5
2022-07-30T18:34:08.520Z,30.4
2022-07-30T18:36:23.362Z,30.6
2022-07-30T18:38:38.171Z,30.4
2022-07-30T18:40:53.025Z,30.4
2022-07-30T18:43:07.838Z,30.3
2022-07-30T18:45:22.198Z,30.3
2022-07-30T18:47:37.636Z,30.4
2022-07-30T18:50:06.907Z,30.3
2022-07-30T18:52:21.800Z,30.1
2022-07-30T18:54:36.514Z,30.3
2022-07-30T18:56:51.570Z,30.1
2022-07-30T18:59:06.090Z,30.1
2022-07-30T19:01:22.418Z,30.1
2022-07-30T19:03:37.067Z,30.1
2022-07-30T19:05:52.217Z,30.1
2022-07-30T19:08:15.252Z,30.2
2022-07-30T19:10:30.035Z,30
2022-07-30T19:12:44.884Z,30.1
2022-07-30T19:14:59.768Z,30
2022-07-30T19:17:15.417Z,30.1
2022-07-30T19:19:33.729Z,30.2
2022-07-30T19:21:48.452Z,30.1
2022-07-30T19:24:03.338Z,30.1
2022-07-30T19:26:18.507Z,30
2022-07-30T19:28:33.032Z,30.1
2022-07-30T19:30:47.889Z,29.9
2022-07-30T19:33:02.733Z,30
2022-07-30T19:35:17.889Z,30.1
2022-07-30T19:37:32.634Z,30
2022-07-30T19:39:58.802Z,30.1
2022-07-30T19:42:08.607Z,30.3
2022-07-30T19:44:23.274Z,30.1
2022-07-30T19:46:38.032Z,30.1
2022-07-30T19:48:53.027Z,30
2022-07-30T19:51:11.077Z,30.1
2022-07-30T19:53:55.732Z,30.3
2022-07-30T19:56:23.440Z,30.2
2022-07-30T19:58:48.196Z,30.3
2022-07-30T20:01:17.873Z,30.2
2022-07-30T20:03:32.781Z,30.2
2022-07-30T20:05:58.606Z,30.1
2022-07-30T20:08:11.636Z,30.1
